Weather observations for the past three days for
Togiac Village, Togiak Airport
Metric (Imperial)
Date Time (akdt) Wind (kph) Vis. (km) Weather Sky Cond. Temperature (ºC) Relative Humidity Wind Chill (°C) Heat Index (°C) Pressure Precipitation (cm)
Air Dwpt 6 hour altimeter (cm) sea level (mb) 1 hr 3 hr 6 hr
Max. Min.
05 02:56 S 20 16.09 Overcast OVC007 10.6 10.6 100% 76.1 1014.6
05 01:56 SW 22 16.09 Overcast OVC007 10.6 10 96% 76.05 1013.9
05 00:56 SW 33 16.09 Overcast and Breezy OVC005 10.6 10.6 100% 76 1013.2
04 23:56 SW 26 G 33 16.09 Overcast OVC003 11.1 11.1 100% 75.97 1012.8
04 22:56 SW 30 G 35 16.09 Overcast OVC003 11.1 11.1 100% 75.92 1012.1
04 21:56 SW 15 4.83 Fog/Mist BKN003 OVC009 11.7 11.7 12.2 11.7 100% 75.84 1011.1
04 20:56 S 22 1.61 Fog/Mist OVC004 11.7 11.7 100% 75.82 1010.8
04 19:56 S 13 2.01 Fog/Mist OVC004 11.7 11.7 100% 75.79 1010.3
04 18:56 S 9 2.01 Fog/Mist OVC008 12.2 12.2 100% 75.77 1010.3
04 17:56 S 9 1.21 Fog/Mist BKN004 OVC010 12.2 12.2 100% 75.79 1010.4
04 16:56 S 9 0.80 Fog OVC004 12.2 12.2 100% 75.84 1011.0
04 15:56 SE 13 1.21 Light Rain Fog/Mist OVC004 11.7 11.7 12.2 11.7 100% 75.84 1011.2
04 14:56 SE 6 4.83 Light Rain Fog/Mist OVC011 12.2 12.2 100% 75.84 1011.2
04 13:56 S 13 2.41 Light Rain Fog/Mist BKN009 OVC013 12.2 12.2 100% 75.87 1011.5
04 12:56 SE 15 4.83 Fog/Mist SCT004 OVC009 12.2 12.2 100% 75.9 1011.7
04 11:56 SE 13 16.09 Overcast SCT004 BKN008 OVC011 11.7 11.7 100% 75.84 1011.2
04 10:56 SE 17 2.01 Fog/Mist OVC015 11.7 11.7 100% 75.84 1011.1
04 09:56 SE 24 4.83 Fog/Mist OVC016 11.7 11.7 12.2 11.7 100% 75.84 1011.3
04 08:56 SE 24 6.44 Light Rain Fog/Mist BKN010 OVC015 11.7 11.7 100% 75.82 1010.9
04 07:56 SE 20 4.02 Light Rain Fog/Mist OVC010 11.7 11.7 100% 75.82 1010.9
04 06:56 SE 26 6.44 Rain Fog/Mist BKN005 OVC009 11.7 11.7 100% 75.84 1011.1
04 05:56 SE 26 4.83 Light Rain Fog/Mist BKN006 OVC010 12.2 12.2 100% 75.87 1011.4
04 04:56 SE 19 8.05 Rain Fog/Mist OVC004 12.2 12.2 100% 75.87 1011.6
04 03:56 SE 20 4.02 Rain Fog/Mist OVC006 11.7 11.7 12.8 11.7 100% 75.9 1011.8
04 02:56 SE 20 4.83 Light Rain Fog/Mist OVC006 11.7 11.7 100% 75.92 1012.3
04 01:56 SE 28 8.05 Light Rain Fog/Mist OVC015 12.2 12.2 100% 75.95 1012.4
04 00:56 SE 22 9.66 Light Rain Fog/Mist BKN003 BKN009 OVC015 12.2 12.2 100% 75.92 1012.3
03 23:56 SE 19 6.44 Light Rain Fog/Mist OVC003 12.2 12.2 100% 75.95 1012.3
03 22:56 SE 24 11.27 Light Rain OVC012 12.2 12.2 100% 75.95 1012.3
03 21:56 SE 26 16.09 Light Rain SCT007 OVC019 12.2 12.2 13.3 12.2 100% 75.95 1012.6
03 20:56 S 26 4.02 Light Rain Fog/Mist OVC005 12.8 12.8 100% 75.95 1012.6
03 19:56 S 26 2.82 Rain Fog/Mist BKN007 OVC022 12.8 12.8 100% 76 1013.1
03 18:56 S 9 8.05 Rain Fog/Mist OVC021 12.8 12.8 100% 76.02 1013.4
03 17:56 S 6 16.09 Light Rain BKN011 OVC015 12.8 12.8 100% 76.05 1013.7
03 16:56 SE 15 14.48 Light Rain BKN010 OVC015 12.8 12.8 100% 76.07 1014.0
03 15:56 S 13 14.48 Light Rain OVC013 12.8 12.8 12.8 11.7 100% 76.05 1014.0
03 14:56 S 13 8.05 Rain Fog/Mist OVC013 12.8 12.2 96% 76.07 1014.2
03 13:56 S 22 9.66 Rain Fog/Mist OVC013 12.8 12.8 100% 76.1 1014.6
03 12:56 S 17 16.09 Light Rain OVC013 12.2 12.2 100% 76.1 1014.5
03 11:56 SE 30 12.87 Light Rain OVC020 12.8 12.2 96% 76.07 1014.2
03 10:56 S 13 8.05 Light Rain Fog/Mist BKN014 OVC032 12.2 12.2 100% 76.07 1014.2
03 09:56 S 19 12.87 Light Rain FEW016 BKN035 OVC050 12.2 12.2 12.8 11.1 100% 76.1 1014.4
03 08:56 E 7 16.09 Overcast BKN016 BKN029 OVC046 12.2 12.2 100% 76.1 1014.7
03 07:56 SE 15 16.09 Overcast OVC032 12.2 12.2 100% 76.12 1014.9
03 06:56 SE 22 16.09 Overcast OVC032 12.2 12.2 100% 76.12 1014.8
03 05:56 SE 22 16.09 Overcast FEW026 BKN033 OVC042 11.7 11.7 100% 76.15 1015.1
03 04:56 SE 22 16.09 Overcast BKN014 OVC021 11.7 11.7 100% 76.2 1016.0
03 03:56 NE 9 6.44 Light Rain Fog/Mist OVC004 11.1 11.1 11.1 10.6 100% 76.23 1016.3
03 01:56 NE 7 3.22 Fog/Mist OVC004 10.6 10.6 100% 76.25 1016.7
03 00:56 NE 9 2.82 Light Rain Fog/Mist OVC004 10.6 10.6 100% 76.28 1016.7
02 23:56 E 7 8.05 Light Rain Fog/Mist OVC004 10.6 10.6 100% 76.28 1017.0
02 22:56 Calm 12.87 Overcast OVC004 10.6 10.6 100% 76.28 1016.8
02 21:56 SE 9 9.66 Light Rain Fog/Mist OVC010 11.1 11.1 11.7 10.6 100% 76.25 1016.6
02 20:56 E 11 4.83 Light Rain Fog/Mist OVC005 11.1 11.1 100% 76.28 1016.7
02 19:56 E 9 4.83 Light Rain Fog/Mist OVC005 11.1 11.1 100% 76.25 1016.6
02 18:56 SE 9 16.09 Overcast SCT007 OVC012 11.7 11.7 100% 76.28 1016.8
02 17:56 Calm 3.22 Light Rain Fog/Mist OVC003 10.6 10.6 100% 76.25 1016.6
02 16:56 NE 6 2.82 Light Rain Fog/Mist OVC005 10.6 10.6 100% 76.25 1016.7
02 15:56 SE 7 6.44 Light Rain Fog/Mist OVC011 10.6 10 10.6 8.9 96% 76.25 1016.4
02 14:56 E 7 16.09 Overcast OVC011 10 9.4 96% 9 76.25 1016.5
02 13:56 E 17 16.09 Light Rain OVC013 9.4 8.9 97% 7 76.28 1016.8
02 12:56 E 17 16.09 Light Rain OVC013 8.9 8.9 100% 7 76.28 1016.8
02 11:56 E 13 4.02 Rain Fog/Mist FEW010 OVC023 8.9 8.3 96% 7 76.28 1016.8
02 08:56 Calm 16.09 Overcast BKN075 OVC110 8.3 8.3 100% 76.15 1015.2
02 07:56 NW 6 16.09 Mostly Cloudy BKN090 7.2 7.2 100% 76.1 1014.6
02 06:56 NW 6 16.09 Mostly Cloudy FEW001 BKN110 7.8 7.8 100% 76.07 1014.1
02 05:56 N 6 16.09 Light Rain FEW075 OVC100 7.2 7.2 100% 76.07 1014.3
02 04:56 Calm 16.09 A Few Clouds FEW120 8.9 8.9 100% 76.05 1013.8
02 03:56 Calm 16.09 Overcast FEW039 OVC080 8.9 8.9 10 8.9 100% 76 1013.3
Date Time (akdt) Wind (kph) Vis. (km) Weather Sky Cond. Air Dwpt Max. Min. Relative Humidity Wind Chill (°C) Heat Index (°C) altimeter (cm) sea level (mb) 1 hr 3 hr 6 hr
6 hour
Temperature (ºC) Pressure Precipitation (cm)